Time;durP1;ratioP1;P1;durP2;ratioP2;P2;SDS_P1;SDS_P2;PMS_P1;PMS_P2;Temp;Humidity;BMP_temperature;BMP_pressure;BME280_temperature;BME280_humidity;BME280_pressure;Samples;Min_cycle;Max_cycle;Signal;HPM_P1;HPM_P2
2021/03/06 00:00:12;;;;;;;6.63;4.93;;;6.40;40.80;;;;;;2071118;28;20106;-61
2021/03/06 00:01:33;;;;;;;6.70;5.45;;;6.40;40.80;;;;;;2070900;28;20034;-62
2021/03/06 00:02:54;;;;;;;6.75;5.55;;;6.40;40.80;;;;;;2070348;28;20041;-61
2021/03/06 00:04:15;;;;;;;8.15;6.15;;;6.40;40.90;;;;;;2070259;28;20048;-60
2021/03/06 00:05:36;;;;;;;5.90;5.30;;;6.40;40.80;;;;;;2070607;28;20029;-61
2021/03/06 00:06:57;;;;;;;6.72;5.70;;;6.40;40.80;;;;;;2071173;28;20037;-61
2021/03/06 00:08:19;;;;;;;7.97;5.63;;;6.40;40.90;;;;;;2064551;28;20102;-62
2021/03/06 00:09:40;;;;;;;7.75;5.20;;;6.40;41.10;;;;;;2068042;28;20127;-61
2021/03/06 00:11:01;;;;;;;7.43;5.28;;;6.30;41.00;;;;;;2071928;28;20100;-60
2021/03/06 00:12:22;;;;;;;10.43;5.05;;;6.40;41.10;;;;;;2070581;28;20579;-60
2021/03/06 00:13:43;;;;;;;7.20;5.70;;;6.30;41.10;;;;;;2065289;28;20046;-60
2021/03/06 00:15:05;;;;;;;6.97;5.10;;;6.30;41.00;;;;;;2068087;28;20042;-60
2021/03/06 00:16:26;;;;;;;7.85;5.32;;;6.30;40.90;;;;;;2069338;28;20469;-60
2021/03/06 00:17:47;;;;;;;5.95;5.35;;;6.30;40.90;;;;;;2068276;28;20062;-61
2021/03/06 00:19:08;;;;;;;5.97;5.10;;;6.30;40.90;;;;;;2071536;28;20534;-60
2021/03/06 00:20:29;;;;;;;6.57;4.75;;;6.30;40.90;;;;;;2071284;28;20037;-61
2021/03/06 00:21:50;;;;;;;7.07;5.28;;;6.20;41.00;;;;;;2072752;28;20398;-61
2021/03/06 00:23:11;;;;;;;6.43;5.78;;;6.30;41.10;;;;;;2068441;28;20453;-61
2021/03/06 00:24:32;;;;;;;5.78;5.22;;;6.30;41.10;;;;;;2065517;28;20029;-61
2021/03/06 00:25:53;;;;;;;7.72;5.28;;;6.30;41.20;;;;;;2071951;28;20626;-63
2021/03/06 00:27:14;;;;;;;6.05;5.15;;;6.20;41.20;;;;;;2072494;28;20037;-61
2021/03/06 00:28:35;;;;;;;5.93;5.30;;;6.20;41.10;;;;;;2070176;28;20051;-60
2021/03/06 00:29:56;;;;;;;7.00;5.45;;;6.20;41.00;;;;;;2069473;28;20445;-60
2021/03/06 00:31:16;;;;;;;8.18;5.18;;;6.20;41.00;;;;;;2071634;28;20125;-60
2021/03/06 00:32:37;;;;;;;5.55;5.05;;;6.20;41.10;;;;;;2070004;28;20048;-60
2021/03/06 00:33:58;;;;;;;8.45;5.32;;;6.10;41.20;;;;;;2071047;28;20471;-60
2021/03/06 00:35:19;;;;;;;6.90;5.47;;;6.20;41.30;;;;;;2065036;28;20050;-60
2021/03/06 00:36:41;;;;;;;8.88;5.53;;;6.10;41.10;;;;;;2069532;28;20030;-59
2021/03/06 00:38:02;;;;;;;6.50;5.78;;;6.10;41.00;;;;;;2073374;28;20041;-62
2021/03/06 00:39:23;;;;;;;5.90;5.05;;;6.10;41.10;;;;;;2072375;28;20041;-60
2021/03/06 00:40:43;;;;;;;7.15;5.68;;;6.10;41.40;;;;;;2073317;28;20042;-61
2021/03/06 00:42:04;;;;;;;7.32;5.70;;;6.10;41.40;;;;;;2071402;28;20445;-60
2021/03/06 00:43:25;;;;;;;5.70;4.97;;;6.10;41.50;;;;;;2072366;28;20038;-61
2021/03/06 00:44:46;;;;;;;6.72;5.40;;;6.10;41.60;;;;;;2069392;28;20424;-61
2021/03/06 00:46:07;;;;;;;6.22;5.57;;;6.10;41.60;;;;;;2065017;28;20042;-60
2021/03/06 00:47:28;;;;;;;7.63;5.47;;;6.10;41.80;;;;;;2070347;28;20018;-60
2021/03/06 00:48:49;;;;;;;7.07;5.07;;;6.10;41.70;;;;;;2072626;28;20113;-63
2021/03/06 00:50:22;;;;;;;6.00;4.88;;;6.10;41.60;;;;;;2066439;28;20089;-60
2021/03/06 00:51:43;;;;;;;5.57;5.03;;;6.00;41.70;;;;;;2068120;28;20036;-60
2021/03/06 00:53:04;;;;;;;7.10;4.97;;;6.10;41.50;;;;;;2070121;28;20487;-59
2021/03/06 00:54:25;;;;;;;6.90;5.85;;;6.00;41.50;;;;;;2068648;28;20368;-60
2021/03/06 00:55:46;;;;;;;6.25;5.15;;;6.00;41.60;;;;;;2064909;28;20034;-60
2021/03/06 00:57:07;;;;;;;7.40;5.15;;;6.00;41.70;;;;;;2064949;28;20045;-60
2021/03/06 00:58:28;;;;;;;5.50;4.85;;;6.00;41.60;;;;;;2067108;28;20062;-61
2021/03/06 00:59:48;;;;;;;6.60;5.20;;;6.00;41.60;;;;;;2069331;28;20046;-60
2021/03/06 01:01:12;;;;;;;5.47;4.47;;;6.00;41.70;;;;;;2071930;28;20676;-61
2021/03/06 01:02:33;;;;;;;5.85;5.15;;;6.00;41.70;;;;;;2069787;28;20030;-61
2021/03/06 01:03:54;;;;;;;5.18;4.63;;;5.90;41.70;;;;;;2067661;28;20125;-59
2021/03/06 01:05:15;;;;;;;6.03;5.43;;;6.00;41.80;;;;;;2069132;28;20322;-60
2021/03/06 01:06:36;;;;;;;7.18;5.20;;;6.00;42.00;;;;;;2071480;28;20352;-61
2021/03/06 01:07:57;;;;;;;6.03;5.43;;;5.90;42.00;;;;;;2072460;28;20026;-60
2021/03/06 01:09:18;;;;;;;7.50;5.75;;;5.90;42.10;;;;;;2072567;28;20026;-60
2021/03/06 01:10:43;;;;;;;7.88;5.47;;;5.90;42.00;;;;;;2068877;28;20037;-60
2021/03/06 01:12:04;;;;;;;6.18;5.00;;;5.90;41.90;;;;;;2067079;28;20458;-61
2021/03/06 01:13:26;;;;;;;7.00;5.18;;;5.90;41.80;;;;;;2068720;28;20903;-61
2021/03/06 01:14:47;;;;;;;6.22;5.32;;;5.90;41.90;;;;;;2067611;28;20037;-60
2021/03/06 01:16:08;;;;;;;6.57;4.90;;;5.90;42.10;;;;;;2071033;28;20045;-60
2021/03/06 01:17:29;;;;;;;6.10;5.20;;;5.90;42.30;;;;;;2071286;28;20037;-61
2021/03/06 01:18:50;;;;;;;8.38;5.50;;;5.90;42.30;;;;;;2072028;28;20076;-60
2021/03/06 01:20:11;;;;;;;6.28;5.10;;;5.80;42.40;;;;;;2068199;28;20607;-59
2021/03/06 01:21:32;;;;;;;7.72;5.20;;;5.80;42.30;;;;;;2069374;28;20097;-60
2021/03/06 01:22:53;;;;;;;7.07;5.43;;;5.80;42.10;;;;;;2058772;28;20027;-60
2021/03/06 01:24:14;;;;;;;5.95;5.13;;;5.80;42.10;;;;;;2064439;28;20091;-60
2021/03/06 01:25:35;;;;;;;9.10;5.25;;;5.80;42.20;;;;;;2071702;28;20025;-59
2021/03/06 01:26:56;;;;;;;6.07;5.15;;;5.80;42.30;;;;;;2065862;28;20030;-61
2021/03/06 01:28:17;;;;;;;5.50;4.88;;;5.80;42.40;;;;;;2065945;28;20129;-59
2021/03/06 01:29:38;;;;;;;6.65;5.07;;;5.80;42.40;;;;;;2072727;28;20026;-59
2021/03/06 01:30:59;;;;;;;6.45;5.65;;;5.70;42.60;;;;;;2071958;28;20475;-61
2021/03/06 01:32:20;;;;;;;7.05;5.18;;;5.80;42.50;;;;;;2073577;28;20105;-60
2021/03/06 01:33:40;;;;;;;6.72;5.38;;;5.70;42.60;;;;;;2068224;28;20041;-60
2021/03/06 01:35:04;;;;;;;8.50;5.60;;;5.70;42.60;;;;;;2065666;28;20073;-60
2021/03/06 01:36:25;;;;;;;7.70;5.68;;;5.70;42.80;;;;;;2066659;28;20029;-60
2021/03/06 01:37:45;;;;;;;8.38;5.30;;;5.70;42.90;;;;;;2071399;28;21064;-60
2021/03/06 01:39:06;;;;;;;6.85;5.15;;;5.70;42.90;;;;;;2072370;28;20046;-60
2021/03/06 01:40:30;;;;;;;6.13;5.00;;;5.70;42.80;;;;;;2072313;28;20033;-60
2021/03/06 01:41:51;;;;;;;7.93;6.07;;;5.70;42.90;;;;;;2066867;28;20026;-60
2021/03/06 01:43:13;;;;;;;5.65;5.00;;;5.70;43.00;;;;;;2063659;28;20022;-60
2021/03/06 01:44:35;;;;;;;8.93;4.88;;;5.60;43.00;;;;;;2064291;28;20038;-61
2021/03/06 01:45:56;;;;;;;6.88;5.03;;;5.60;42.90;;;;;;2071163;28;20041;-60
2021/03/06 01:47:18;;;;;;;7.22;5.32;;;5.60;43.00;;;;;;2072275;28;20022;-59
2021/03/06 01:48:39;;;;;;;6.13;5.15;;;5.60;42.90;;;;;;2072440;28;20018;-60
2021/03/06 01:50:01;;;;;;;6.07;5.20;;;5.60;42.90;;;;;;2071685;28;20022;-60
2021/03/06 01:51:22;;;;;;;5.30;4.80;;;5.50;42.90;;;;;;2069554;28;20037;-60
2021/03/06 01:52:42;;;;;;;6.97;5.55;;;5.60;43.20;;;;;;2065836;28;20398;-60
2021/03/06 01:54:06;;;;;;;6.10;4.85;;;5.60;43.20;;;;;;2069222;28;20068;-60
2021/03/06 01:55:29;;;;;;;7.03;5.38;;;5.60;43.30;;;;;;2062872;28;20152;-61
2021/03/06 01:56:51;;;;;;;5.32;4.82;;;5.50;43.40;;;;;;2068241;28;20025;-60
2021/03/06 01:58:16;;;;;;;6.43;4.90;;;5.50;43.20;;;;;;2071680;28;20034;-61
2021/03/06 01:59:38;;;;;;;7.40;4.90;;;5.50;43.20;;;;;;2069668;28;20448;-60
2021/03/06 02:00:58;;;;;;;6.38;4.57;;;5.50;43.00;;;;;;2071584;28;20037;-60
2021/03/06 02:02:20;;;;;;;6.15;5.50;;;5.50;43.00;;;;;;2072026;28;20034;-60
2021/03/06 02:03:40;;;;;;;8.07;4.95;;;5.50;43.00;;;;;;2066129;28;20034;-60
2021/03/06 02:05:01;;;;;;;6.47;5.20;;;5.50;43.00;;;;;;2064589;28;20034;-60
2021/03/06 02:06:23;;;;;;;7.95;5.53;;;5.50;43.20;;;;;;2066829;28;20038;-60
2021/03/06 02:07:45;;;;;;;7.47;5.43;;;5.50;43.30;;;;;;2062403;28;20026;-60
2021/03/06 02:09:06;;;;;;;6.45;5.10;;;5.50;43.20;;;;;;2064731;28;20130;-60
2021/03/06 02:10:33;;;;;;;6.45;5.45;;;5.50;43.20;;;;;;2070194;28;20018;-61
2021/03/06 02:12:08;;;;;;;5.82;5.20;;;5.50;43.30;;;;;;2069375;28;20513;-61
2021/03/06 02:14:13;;;;;;;7.07;4.93;;;5.50;43.40;;;;;;2070161;28;20680;-60
2021/03/06 02:15:46;;;;;;;5.55;4.88;;;5.40;43.60;;;;;;2061185;28;20095;-61
2021/03/06 02:17:11;;;;;;;6.13;5.15;;;5.40;43.40;;;;;;2069958;28;20048;-60
2021/03/06 02:18:48;;;;;;;7.07;5.22;;;5.40;43.20;;;;;;2067373;28;20096;-60
2021/03/06 02:20:18;;;;;;;5.22;4.57;;;5.40;43.30;;;;;;2071780;28;20038;-60
2021/03/06 02:22:15;;;;;;;6.22;5.07;;;5.40;43.10;;;;;;2069948;28;20146;-60
2021/03/06 02:23:48;;;;;;;4.45;4.05;;;5.40;43.30;;;;;;2069323;28;20065;-61
2021/03/06 02:25:25;;;;;;;6.18;5.10;;;5.40;43.10;;;;;;2068127;28;20030;-61
2021/03/06 02:27:23;;;;;;;5.95;4.70;;;5.40;43.40;;;;;;2067886;28;20129;-60
2021/03/06 02:29:08;;;;;;;6.93;4.72;;;5.40;43.80;;;;;;2066189;28;20034;-60
2021/03/06 02:30:30;;;;;;;6.18;4.90;;;5.40;43.40;;;;;;2065793;28;20058;-60
2021/03/06 02:31:53;;;;;;;7.15;5.00;;;5.40;43.10;;;;;;2069669;28;20063;-61
2021/03/06 02:33:16;;;;;;;7.70;5.03;;;5.30;43.20;;;;;;2065831;28;20041;-61
2021/03/06 02:34:40;;;;;;;6.03;5.10;;;5.30;43.30;;;;;;2071901;28;20460;-60
2021/03/06 02:36:07;;;;;;;6.63;6.03;;;5.30;43.40;;;;;;2071679;28;20080;-60
2021/03/06 02:37:30;;;;;;;6.95;5.38;;;5.30;43.60;;;;;;2067839;28;20480;-60
2021/03/06 02:38:55;;;;;;;7.03;5.18;;;5.30;43.60;;;;;;2066731;28;20038;-60
2021/03/06 02:40:17;;;;;;;6.25;5.20;;;5.30;44.30;;;;;;2064781;28;20030;-61
2021/03/06 02:41:39;;;;;;;5.50;4.95;;;5.30;43.80;;;;;;2068815;28;20066;-60
2021/03/06 02:43:02;;;;;;;6.53;4.88;;;5.30;43.60;;;;;;2064538;28;20100;-61
2021/03/06 02:44:25;;;;;;;6.65;5.00;;;5.20;43.50;;;;;;2066799;28;20030;-60
2021/03/06 02:45:47;;;;;;;7.55;5.18;;;5.20;43.40;;;;;;2068691;28;20045;-60
2021/03/06 02:47:08;;;;;;;7.50;5.43;;;5.20;43.40;;;;;;2070848;28;20101;-61
2021/03/06 02:48:30;;;;;;;6.28;5.40;;;5.20;43.60;;;;;;2067969;28;20030;-60
2021/03/06 02:49:53;;;;;;;5.65;5.05;;;5.20;43.80;;;;;;2063911;28;20038;-60
2021/03/06 02:51:14;;;;;;;8.48;5.75;;;5.20;43.80;;;;;;2063972;28;20030;-59
2021/03/06 02:52:35;;;;;;;6.93;5.55;;;5.20;43.70;;;;;;2072002;28;20044;-60
2021/03/06 02:53:56;;;;;;;5.38;4.88;;;5.20;43.70;;;;;;2057975;28;20084;-60
2021/03/06 02:55:17;;;;;;;6.68;5.22;;;5.20;44.10;;;;;;2066171;28;20034;-59
2021/03/06 02:56:39;;;;;;;8.63;5.50;;;5.20;44.10;;;;;;2066504;28;20025;-60
2021/03/06 02:58:21;;;;;;;6.78;5.15;;;5.20;43.90;;;;;;2070729;28;20041;-61
2021/03/06 03:00:04;;;;;;;5.63;4.85;;;5.20;43.90;;;;;;2068183;28;20022;-61
2021/03/06 03:01:40;;;;;;;5.75;4.90;;;5.20;43.90;;;;;;2069859;28;20026;-61
2021/03/06 03:03:11;;;;;;;5.20;4.80;;;5.20;43.80;;;;;;2071899;28;20030;-62
2021/03/06 03:05:01;;;;;;;5.15;4.50;;;5.20;43.80;;;;;;2066663;28;20587;-61
2021/03/06 03:06:22;;;;;;;;;;;5.20;43.80;;;;;;2066255;28;20034;-60
2021/03/06 03:07:56;;;;;;;5.28;4.20;;;5.20;44.00;;;;;;2069299;28;19917;-62
2021/03/06 03:09:25;;;;;;;4.70;4.30;;;5.20;43.50;;;;;;2069335;28;20034;-61
2021/03/06 03:10:54;;;;;;;8.07;5.30;;;5.20;43.50;;;;;;2064103;28;20030;-60
2021/03/06 03:12:28;;;;;;;6.65;4.70;;;5.20;43.70;;;;;;2064809;28;20030;-60
2021/03/06 03:13:54;;;;;;;5.30;4.85;;;5.20;43.90;;;;;;2070320;28;20073;-61
2021/03/06 03:15:24;;;;;;;6.97;5.28;;;5.20;43.70;;;;;;2070594;28;20026;-61
2021/03/06 03:16:52;;;;;;;;;;;5.10;43.70;;;;;;2069452;28;20045;-61
2021/03/06 03:18:25;;;;;;;5.82;4.75;;;5.10;44.20;;;;;;2070271;28;19959;-61
2021/03/06 03:19:56;;;;;;;7.57;4.35;;;5.10;43.90;;;;;;2070370;28;20038;-61
2021/03/06 03:21:20;;;;;;;6.88;5.22;;;5.10;43.70;;;;;;2066415;28;20039;-61
2021/03/06 03:22:48;;;;;;;7.38;5.10;;;5.10;43.50;;;;;;2070913;28;20057;-61
2021/03/06 03:24:16;;;;;;;7.78;5.35;;;5.10;43.70;;;;;;2066580;28;20030;-61
2021/03/06 03:25:40;;;;;;;8.55;5.43;;;5.00;43.70;;;;;;2067998;28;20034;-60
2021/03/06 03:27:05;;;;;;;9.10;5.47;;;5.00;43.70;;;;;;2065344;28;20457;-61
2021/03/06 03:28:30;;;;;;;4.97;4.53;;;5.10;43.80;;;;;;2068585;28;20060;-60
2021/03/06 03:29:52;;;;;;;7.10;5.47;;;5.00;43.70;;;;;;2055400;28;20042;-60
2021/03/06 03:31:14;;;;;;;5.32;4.82;;;5.00;43.70;;;;;;2065605;28;20089;-60
2021/03/06 03:32:36;;;;;;;7.15;5.47;;;5.00;43.70;;;;;;2065425;28;20062;-60
2021/03/06 03:33:57;;;;;;;6.13;5.47;;;5.00;43.70;;;;;;2066984;28;20372;-61
2021/03/06 03:35:21;;;;;;;5.97;5.38;;;5.00;43.80;;;;;;2064682;28;20353;-61
2021/03/06 03:36:43;;;;;;;6.10;5.50;;;4.90;44.50;;;;;;2071180;28;20033;-60
2021/03/06 03:38:04;;;;;;;7.97;5.53;;;4.90;44.10;;;;;;2069898;28;20026;-60
2021/03/06 03:39:26;;;;;;;6.18;5.50;;;4.90;44.20;;;;;;2065485;28;20034;-60
2021/03/06 03:40:47;;;;;;;5.93;4.90;;;5.00;44.40;;;;;;2069710;28;20026;-61
2021/03/06 03:42:09;;;;;;;8.65;5.47;;;4.90;44.50;;;;;;2070811;28;20048;-60
2021/03/06 03:43:31;;;;;;;5.38;4.85;;;4.90;44.40;;;;;;2069744;28;20111;-61
2021/03/06 03:44:52;;;;;;;5.22;4.72;;;4.90;44.30;;;;;;2067647;28;20029;-60
2021/03/06 03:46:13;;;;;;;5.30;4.78;;;4.90;44.30;;;;;;2071726;28;20050;-60
2021/03/06 03:47:38;;;;;;;8.40;5.40;;;4.90;44.40;;;;;;2069844;28;20141;-60
2021/03/06 03:49:01;;;;;;;6.82;5.20;;;4.90;44.50;;;;;;2072398;28;20123;-60
2021/03/06 03:50:22;;;;;;;5.53;5.00;;;4.90;44.40;;;;;;2072975;28;20034;-60
2021/03/06 03:51:43;;;;;;;6.65;5.20;;;4.90;44.40;;;;;;2073299;28;20026;-62
2021/03/06 03:53:04;;;;;;;7.80;5.53;;;4.90;44.40;;;;;;2072742;28;20805;-61
2021/03/06 03:54:26;;;;;;;6.97;5.50;;;4.90;44.40;;;;;;2072340;28;20056;-61
2021/03/06 03:55:47;;;;;;;6.07;5.38;;;4.90;44.70;;;;;;2064767;28;20034;-61
2021/03/06 03:57:08;;;;;;;7.03;5.38;;;4.90;44.50;;;;;;2068504;28;20111;-60
2021/03/06 03:58:29;;;;;;;7.15;5.05;;;4.90;44.40;;;;;;2070195;28;20022;-61
2021/03/06 03:59:50;;;;;;;7.05;5.53;;;4.90;44.40;;;;;;2073065;28;20030;-60
2021/03/06 04:01:11;;;;;;;6.15;5.13;;;4.80;44.40;;;;;;2070043;28;20067;-61
2021/03/06 04:02:32;;;;;;;6.25;5.32;;;4.80;44.60;;;;;;2066996;28;20088;-61
2021/03/06 04:03:53;;;;;;;8.23;5.65;;;4.80;44.50;;;;;;2069517;28;20633;-61
2021/03/06 04:05:14;;;;;;;7.55;5.00;;;4.80;44.70;;;;;;2069903;28;20026;-60
2021/03/06 04:06:36;;;;;;;6.97;5.28;;;4.80;44.80;;;;;;2070950;28;20026;-60
2021/03/06 04:07:57;;;;;;;6.68;4.80;;;4.80;44.60;;;;;;2066593;28;20030;-60
2021/03/06 04:09:18;;;;;;;6.72;5.70;;;4.80;44.60;;;;;;2059060;28;20083;-60
2021/03/06 04:10:39;;;;;;;6.50;5.35;;;4.80;44.60;;;;;;2068828;28;20027;-60
2021/03/06 04:12:00;;;;;;;6.38;5.53;;;4.80;44.80;;;;;;2071485;28;20041;-60
2021/03/06 04:13:21;;;;;;;7.18;5.60;;;4.80;44.70;;;;;;2065168;28;20097;-60
2021/03/06 04:14:43;;;;;;;7.55;5.50;;;4.80;44.80;;;;;;2070741;28;20477;-60
2021/03/06 04:16:04;;;;;;;6.10;4.90;;;4.80;45.10;;;;;;2069265;28;20045;-60
2021/03/06 04:17:25;;;;;;;5.60;5.10;;;4.70;44.80;;;;;;2070179;28;20069;-60
2021/03/06 04:18:46;;;;;;;6.22;4.93;;;4.70;44.80;;;;;;2070062;28;20041;-60
2021/03/06 04:20:12;;;;;;;6.72;5.22;;;4.70;45.10;;;;;;2064648;28;20449;-61
2021/03/06 04:21:33;;;;;;;6.85;5.15;;;4.70;45.30;;;;;;2066894;28;20117;-61
2021/03/06 04:22:54;;;;;;;7.10;5.50;;;4.70;45.10;;;;;;2072041;28;20121;-60
2021/03/06 04:24:15;;;;;;;6.95;5.40;;;4.70;45.10;;;;;;2069296;28;20044;-61
2021/03/06 04:25:36;;;;;;;6.30;5.30;;;4.70;45.10;;;;;;2065299;28;20505;-61
2021/03/06 04:26:57;;;;;;;6.72;5.55;;;4.70;45.30;;;;;;2071261;28;20030;-60
2021/03/06 04:28:18;;;;;;;5.55;5.05;;;4.70;45.40;;;;;;2072857;28;20086;-60
2021/03/06 04:29:39;;;;;;;7.53;5.57;;;4.70;45.40;;;;;;2071567;28;20022;-60
2021/03/06 04:31:00;;;;;;;6.50;5.00;;;4.70;45.50;;;;;;2072023;28;20030;-60
2021/03/06 04:32:21;;;;;;;6.82;5.10;;;4.60;45.50;;;;;;2073293;28;20081;-61
2021/03/06 04:33:43;;;;;;;7.18;5.43;;;4.70;45.60;;;;;;2069588;28;20420;-61
2021/03/06 04:35:05;;;;;;;7.45;5.68;;;4.60;45.50;;;;;;2070685;28;20809;-60
2021/03/06 04:36:26;;;;;;;6.93;5.30;;;4.60;45.70;;;;;;2071434;28;20713;-61
2021/03/06 04:37:47;;;;;;;5.75;5.13;;;4.60;45.70;;;;;;2066238;28;20034;-60
2021/03/06 04:39:08;;;;;;;6.75;5.30;;;4.60;46.20;;;;;;2068994;28;20090;-61
2021/03/06 04:40:29;;;;;;;7.80;5.65;;;4.60;45.60;;;;;;2071567;28;20021;-60
2021/03/06 04:41:49;;;;;;;6.57;5.40;;;4.60;45.70;;;;;;2068159;28;20362;-61
2021/03/06 04:43:10;;;;;;;6.22;5.63;;;4.60;45.70;;;;;;2065233;28;20030;-61
2021/03/06 04:44:31;;;;;;;6.45;5.35;;;4.50;45.70;;;;;;2067554;28;20030;-61
2021/03/06 04:45:52;;;;;;;6.50;5.38;;;4.50;45.90;;;;;;2072169;28;20070;-61
2021/03/06 04:47:13;;;;;;;6.90;5.15;;;4.60;46.10;;;;;;2069557;28;20069;-61
2021/03/06 04:48:35;;;;;;;7.45;6.03;;;4.50;46.10;;;;;;2068785;28;20038;-61
2021/03/06 04:49:56;;;;;;;6.28;5.45;;;4.50;46.30;;;;;;2067862;28;20112;-61
2021/03/06 04:51:17;;;;;;;7.13;5.95;;;4.50;46.40;;;;;;2066430;28;20027;-60
2021/03/06 04:52:38;;;;;;;7.00;5.57;;;4.50;46.50;;;;;;2072786;28;20046;-60
2021/03/06 04:53:59;;;;;;;6.20;5.57;;;4.50;46.70;;;;;;2070818;28;20045;-60
2021/03/06 04:55:20;;;;;;;6.85;5.88;;;4.50;46.70;;;;;;2068739;28;20030;-60
2021/03/06 04:56:41;;;;;;;8.10;6.60;;;4.40;46.70;;;;;;2070416;28;20030;-59
2021/03/06 04:58:02;;;;;;;7.78;6.13;;;4.40;46.70;;;;;;2069633;28;20034;-59
2021/03/06 04:59:23;;;;;;;6.68;5.57;;;4.40;46.90;;;;;;2068265;28;20100;-59
2021/03/06 05:00:44;;;;;;;7.20;5.93;;;4.40;47.40;;;;;;2069385;28;20524;-61
2021/03/06 05:02:05;;;;;;;7.57;6.13;;;4.50;46.70;;;;;;2069598;28;20041;-61
2021/03/06 05:03:26;;;;;;;8.00;5.82;;;4.40;46.60;;;;;;2067758;28;20084;-61
2021/03/06 05:04:46;;;;;;;9.48;6.20;;;4.40;46.80;;;;;;2070645;28;20033;-61
2021/03/06 05:06:07;;;;;;;8.75;6.28;;;4.40;46.90;;;;;;2064650;28;20034;-60
2021/03/06 05:07:28;;;;;;;7.35;5.97;;;4.40;47.00;;;;;;2073273;28;20062;-61
2021/03/06 05:08:49;;;;;;;10.15;5.97;;;4.40;47.00;;;;;;2071548;28;20026;-61
2021/03/06 05:10:11;;;;;;;7.38;5.95;;;4.50;47.00;;;;;;2071635;28;20026;-60
2021/03/06 05:11:31;;;;;;;8.82;5.50;;;4.40;46.80;;;;;;2072532;28;20096;-60
2021/03/06 05:12:52;;;;;;;6.15;5.22;;;4.40;46.70;;;;;;2071721;28;20042;-62
2021/03/06 05:14:13;;;;;;;8.20;6.07;;;4.40;46.60;;;;;;2073816;28;20045;-61
2021/03/06 05:15:34;;;;;;;7.60;5.72;;;4.40;46.50;;;;;;2068882;28;20026;-62
2021/03/06 05:16:55;;;;;;;8.57;6.13;;;4.40;46.60;;;;;;2070183;28;20044;-61
2021/03/06 05:18:16;;;;;;;7.22;5.88;;;4.40;46.50;;;;;;2065942;28;20050;-60
2021/03/06 05:19:37;;;;;;;8.98;5.97;;;4.40;46.50;;;;;;2066839;28;20044;-62
2021/03/06 05:20:59;;;;;;;6.88;6.10;;;4.40;46.50;;;;;;2071867;28;20037;-62
2021/03/06 05:22:20;;;;;;;6.90;6.00;;;4.40;46.60;;;;;;2073759;28;20060;-61
2021/03/06 05:23:41;;;;;;;8.88;5.63;;;4.40;46.70;;;;;;2072091;28;20030;-61
2021/03/06 05:25:02;;;;;;;9.70;5.60;;;4.40;46.60;;;;;;2070090;28;20056;-60
2021/03/06 05:26:22;;;;;;;8.63;6.57;;;4.40;46.60;;;;;;2071436;28;20042;-60
2021/03/06 05:27:43;;;;;;;8.25;6.63;;;4.40;46.80;;;;;;2069087;28;20061;-60
2021/03/06 05:29:04;;;;;;;7.38;6.15;;;4.40;46.80;;;;;;2071227;28;20448;-60
2021/03/06 05:30:25;;;;;;;7.75;5.93;;;4.40;46.70;;;;;;2072228;28;20032;-60
2021/03/06 05:31:46;;;;;;;9.95;6.70;;;4.40;46.70;;;;;;2069211;28;20039;-60
2021/03/06 05:33:07;;;;;;;7.88;6.32;;;4.40;46.70;;;;;;2070490;28;20117;-60
2021/03/06 05:34:28;;;;;;;6.82;5.95;;;4.40;46.70;;;;;;2072233;28;20408;-60
2021/03/06 05:35:49;;;;;;;6.28;5.68;;;4.40;46.70;;;;;;2073284;28;20033;-60
2021/03/06 05:37:10;;;;;;;8.55;6.53;;;4.40;46.60;;;;;;2068235;28;20031;-60
2021/03/06 05:38:31;;;;;;;8.98;6.25;;;4.40;46.60;;;;;;2071237;28;20099;-61
2021/03/06 05:39:52;;;;;;;7.30;6.38;;;4.40;46.60;;;;;;2069827;28;20030;-60
2021/03/06 05:41:12;;;;;;;6.72;5.82;;;4.40;46.70;;;;;;2071507;28;20377;-60
2021/03/06 05:42:37;;;;;;;8.95;6.13;;;4.40;46.80;;;;;;2068319;28;20350;-60
2021/03/06 05:43:59;;;;;;;7.07;5.97;;;4.40;47.20;;;;;;2069867;28;20026;-61
2021/03/06 05:45:19;;;;;;;9.82;6.53;;;4.30;47.00;;;;;;2066560;28;20109;-60
2021/03/06 05:46:41;;;;;;;9.30;6.13;;;4.30;46.90;;;;;;2072225;28;20684;-60
2021/03/06 05:48:03;;;;;;;7.97;6.45;;;4.30;46.90;;;;;;2067071;28;20038;-63
2021/03/06 05:49:24;;;;;;;8.35;6.68;;;4.30;47.10;;;;;;2069920;28;20027;-60
2021/03/06 05:50:47;;;;;;;7.45;6.25;;;4.30;47.60;;;;;;2066313;28;20037;-60
2021/03/06 05:52:09;;;;;;;8.90;7.07;;;4.30;47.30;;;;;;2064980;28;20094;-60
2021/03/06 05:53:31;;;;;;;11.70;6.45;;;4.30;47.40;;;;;;2066346;28;20377;-60
2021/03/06 05:54:55;;;;;;;7.03;5.80;;;4.30;47.50;;;;;;2066640;28;21108;-60
2021/03/06 05:56:18;;;;;;;6.65;5.95;;;4.30;47.70;;;;;;2067593;28;20034;-59
2021/03/06 05:57:39;;;;;;;8.82;5.97;;;4.30;47.60;;;;;;2069233;28;20467;-61
2021/03/06 05:59:03;;;;;;;8.98;5.85;;;4.30;47.40;;;;;;2072087;28;20077;-60
2021/03/06 06:00:24;;;;;;;9.00;6.53;;;4.30;47.50;;;;;;2070225;28;20029;-60
2021/03/06 06:01:48;;;;;;;10.10;7.43;;;4.30;47.30;;;;;;2071497;28;20041;-60
2021/03/06 06:03:10;;;;;;;8.73;6.65;;;4.30;47.60;;;;;;2066362;28;20088;-60
2021/03/06 06:04:32;;;;;;;7.72;6.47;;;4.30;47.50;;;;;;2068743;28;20385;-60
2021/03/06 06:05:53;;;;;;;8.23;6.40;;;4.30;47.40;;;;;;2069922;28;20125;-60
2021/03/06 06:07:17;;;;;;;7.80;6.32;;;4.30;47.50;;;;;;2065907;28;20037;-60
2021/03/06 06:08:40;;;;;;;8.57;6.97;;;4.30;47.50;;;;;;2068158;28;20469;-60
2021/03/06 06:10:01;;;;;;;8.95;6.45;;;4.30;47.40;;;;;;2069413;28;20061;-59
2021/03/06 06:11:22;;;;;;;11.25;6.60;;;4.30;47.40;;;;;;2064799;28;20014;-61
2021/03/06 06:12:43;;;;;;;8.23;5.93;;;4.30;47.50;;;;;;2067176;28;20033;-61
2021/03/06 06:14:06;;;;;;;10.50;6.68;;;4.30;47.40;;;;;;2065761;28;20034;-61
2021/03/06 06:15:27;;;;;;;8.95;6.90;;;4.20;47.40;;;;;;2065728;28;20476;-61
2021/03/06 06:16:49;;;;;;;8.05;5.97;;;4.20;47.40;;;;;;2065059;28;20105;-61
2021/03/06 06:18:11;;;;;;;7.95;6.35;;;4.20;47.50;;;;;;2070175;28;20026;-61
2021/03/06 06:19:33;;;;;;;8.90;6.78;;;4.20;47.40;;;;;;2072263;28;20124;-61
2021/03/06 06:20:54;;;;;;;9.85;6.78;;;4.20;47.40;;;;;;2070893;28;20457;-61
2021/03/06 06:22:19;;;;;;;9.80;6.38;;;4.20;47.50;;;;;;2072106;28;20053;-60
2021/03/06 06:23:40;;;;;;;9.02;6.80;;;4.20;47.40;;;;;;2065656;28;20125;-61
2021/03/06 06:25:01;;;;;;;10.15;7.07;;;4.20;47.40;;;;;;2071623;28;20056;-61
2021/03/06 06:26:22;;;;;;;7.50;5.97;;;4.20;47.30;;;;;;2068239;28;20111;-62
2021/03/06 06:27:42;;;;;;;10.75;6.65;;;4.20;47.80;;;;;;2068210;28;20060;-59
2021/03/06 06:29:04;;;;;;;8.95;6.72;;;4.20;47.20;;;;;;2069133;28;20109;-59
2021/03/06 06:30:25;;;;;;;9.57;6.53;;;4.20;47.30;;;;;;2068048;28;20044;-61
2021/03/06 06:31:52;;;;;;;8.82;7.20;;;4.20;47.30;;;;;;2071576;28;20029;-61
2021/03/06 06:33:32;;;;;;;7.65;6.35;;;4.20;47.40;;;;;;2070101;28;20034;-61
2021/03/06 06:35:02;;;;;;;7.05;5.80;;;4.20;47.50;;;;;;2070600;28;20041;-62
2021/03/06 06:36:40;;;;;;;8.05;6.55;;;4.20;47.40;;;;;;2069807;28;20030;-62
2021/03/06 06:38:06;;;;;;;7.13;6.35;;;4.20;47.50;;;;;;2070161;28;20038;-62
2021/03/06 06:39:29;;;;;;;9.18;6.30;;;4.30;47.40;;;;;;2068849;28;20041;-61
2021/03/06 06:40:55;;;;;;;11.05;6.93;;;4.20;47.30;;;;;;2071796;28;20026;-61
2021/03/06 06:42:15;;;;;;;9.98;6.78;;;4.20;47.40;;;;;;2066810;28;20045;-60
2021/03/06 06:43:36;;;;;;;9.50;6.90;;;4.20;47.40;;;;;;2071570;28;20115;-61
2021/03/06 06:44:58;;;;;;;7.57;6.68;;;4.20;47.40;;;;;;2070913;28;20446;-61
2021/03/06 06:46:29;;;;;;;12.82;7.30;;;4.20;47.40;;;;;;2072465;28;20060;-61
2021/03/06 06:47:52;;;;;;;7.40;6.35;;;4.20;47.70;;;;;;2070226;28;20425;-60
2021/03/06 06:49:13;;;;;;;8.38;6.18;;;4.20;47.50;;;;;;2071107;28;20458;-61
2021/03/06 06:50:34;;;;;;;8.32;6.25;;;4.20;47.50;;;;;;2069655;28;20700;-61
2021/03/06 06:52:03;;;;;;;9.43;6.85;;;4.20;47.50;;;;;;2072693;28;20041;-61
2021/03/06 06:53:25;;;;;;;10.00;7.00;;;4.20;47.70;;;;;;2071540;28;20030;-62
2021/03/06 06:54:56;;;;;;;11.15;6.72;;;4.20;47.60;;;;;;2063283;28;20288;-61
2021/03/06 06:56:24;;;;;;;6.85;6.20;;;4.30;48.10;;;;;;2069124;28;20042;-60
2021/03/06 06:57:47;;;;;;;6.60;5.97;;;4.30;48.00;;;;;;2068714;28;20409;-61
2021/03/06 06:59:09;;;;;;;8.57;6.50;;;4.30;48.00;;;;;;2065679;28;20093;-61
2021/03/06 07:00:32;;;;;;;8.80;6.93;;;4.30;48.00;;;;;;2070449;28;20034;-61
2021/03/06 07:01:53;;;;;;;8.25;6.68;;;4.30;48.00;;;;;;2062418;28;20053;-61
2021/03/06 07:03:21;;;;;;;8.70;6.88;;;4.30;48.10;;;;;;2066147;28;20341;-62
2021/03/06 07:04:47;;;;;;;8.95;6.80;;;4.30;48.60;;;;;;2070541;28;20041;-61
2021/03/06 07:06:13;;;;;;;9.20;6.55;;;4.30;48.80;;;;;;2069884;28;20048;-61
2021/03/06 07:07:39;;;;;;;10.10;6.75;;;4.40;48.80;;;;;;2070835;28;20018;-62
2021/03/06 07:09:18;;;;;;;8.45;6.82;;;4.40;49.00;;;;;;2069183;28;20037;-59
2021/03/06 07:10:40;;;;;;;10.18;6.85;;;4.40;49.30;;;;;;2066261;28;20393;-61
2021/03/06 07:12:16;;;;;;;11.60;7.53;;;4.40;49.00;;;;;;2067328;28;20080;-61
2021/03/06 07:13:40;;;;;;;10.65;6.60;;;4.40;49.40;;;;;;2065645;28;20034;-61
2021/03/06 07:15:02;;;;;;;8.48;6.72;;;4.40;49.20;;;;;;2064934;28;20077;-61
2021/03/06 07:16:23;;;;;;;9.48;7.90;;;4.40;49.00;;;;;;2066505;28;20045;-61
2021/03/06 07:17:46;;;;;;;8.90;7.03;;;4.50;49.00;;;;;;2069188;28;20034;-61
2021/03/06 07:19:07;;;;;;;10.68;7.53;;;4.50;49.20;;;;;;2070595;28;20464;-61